Time;durP1;ratioP1;P1;durP2;ratioP2;P2;SDS_P1;SDS_P2;PMS_P1;PMS_P2;Temp;Humidity;BMP_temperature;BMP_pressure;BME280_temperature;BME280_humidity;BME280_pressure;Samples;Min_cycle;Max_cycle;Signal;HPM_P1;HPM_P2
2022/04/16 01:25:03;;;;;;;2.97;1.50;;;19.80;80.50;;;;;;5112896;27;20141;-67
2022/04/16 01:27:30;;;;;;;3.45;1.50;;;19.90;79.00;;;;;;5100497;27;20031;-67
2022/04/16 01:29:59;;;;;;;3.83;1.38;;;19.90;78.30;;;;;;5111212;28;20088;-67
2022/04/16 01:32:27;;;;;;;4.60;2.10;;;20.00;78.60;;;;;;5110440;28;20039;-67
2022/04/16 01:34:54;;;;;;;6.57;2.03;;;20.00;78.90;;;;;;5111263;28;20027;-67
2022/04/16 01:37:24;;;;;;;3.58;2.25;;;20.00;79.20;;;;;;5105100;27;20037;-67
2022/04/16 01:39:51;;;;;;;4.85;1.77;;;20.00;78.90;;;;;;5107209;28;20043;-67
2022/04/16 01:42:21;;;;;;;4.03;1.55;;;20.10;78.90;;;;;;5114408;27;20061;-67
2022/04/16 01:44:48;;;;;;;3.85;1.27;;;20.10;77.10;;;;;;5093608;28;20115;-67
2022/04/16 01:47:15;;;;;;;3.45;1.15;;;20.20;75.40;;;;;;5111567;28;20051;-67
2022/04/16 01:49:42;;;;;;;2.35;1.20;;;20.20;76.20;;;;;;5110808;28;20030;-67
2022/04/16 01:52:10;;;;;;;5.03;1.33;;;20.20;76.10;;;;;;5110626;28;20482;-68
2022/04/16 01:54:37;;;;;;;2.92;1.35;;;20.20;75.50;;;;;;5111667;28;20028;-67
2022/04/16 01:57:04;;;;;;;3.45;1.38;;;20.30;76.90;;;;;;5093938;28;20031;-67
2022/04/16 01:59:32;;;;;;;4.70;1.63;;;20.30;76.60;;;;;;5120712;27;20039;-67
2022/04/16 02:01:59;;;;;;;3.65;1.38;;;20.30;76.30;;;;;;5092710;28;20050;-67
2022/04/16 02:04:26;;;;;;;3.75;1.45;;;20.40;76.70;;;;;;5110259;28;20484;-68
2022/04/16 02:06:53;;;;;;;2.40;1.38;;;20.40;76.20;;;;;;5110929;28;20023;-67
2022/04/16 02:09:21;;;;;;;4.03;1.52;;;20.50;76.00;;;;;;5110605;28;20047;-67
2022/04/16 02:11:48;;;;;;;2.65;1.30;;;20.50;75.70;;;;;;5110522;28;20032;-67
2022/04/16 02:14:15;;;;;;;5.05;1.20;;;20.50;75.50;;;;;;5120250;27;20622;-68
2022/04/16 02:16:42;;;;;;;2.22;1.20;;;20.50;73.60;;;;;;5128774;28;20612;-68
2022/04/16 02:19:09;;;;;;;5.32;1.35;;;20.70;74.80;;;;;;5111163;28;20027;-68
2022/04/16 02:21:37;;;;;;;3.42;1.15;;;20.70;75.10;;;;;;5112638;28;20103;-68
2022/04/16 02:37:19;;;;;;;2.55;1.52;;;20.70;74.40;;;;;;5117259;27;20112;-68
2022/04/16 02:39:46;;;;;;;11.90;2.22;;;20.70;74.90;;;;;;5135529;27;20473;-68
2022/04/16 02:42:13;;;;;;;6.43;1.95;;;20.70;77.70;;;;;;5124480;27;20539;-69
2022/04/16 02:47:26;;;;;;;6.60;2.15;;;20.80;77.90;;;;;;5116393;27;20142;-68
2022/04/16 02:49:53;;;;;;;7.65;2.25;;;20.80;78.90;;;;;;5114634;28;20024;-69
2022/04/16 02:52:22;;;;;;;8.38;2.00;;;20.80;78.80;;;;;;5115706;27;20115;-69
2022/04/16 02:54:49;;;;;;;7.28;2.00;;;20.80;79.20;;;;;;5106633;28;20051;-68
2022/04/16 02:57:16;;;;;;;4.40;2.15;;;20.80;79.80;;;;;;5114051;28;20114;-68
2022/04/16 02:59:46;;;;;;;3.95;1.90;;;20.80;78.60;;;;;;5122382;27;20072;-68
2022/04/16 03:02:13;;;;;;;;;;;20.80;79.00;;;;;;5115407;28;20084;-68
2022/04/16 03:04:40;;;;;;;3.78;1.55;;;20.80;78.50;;;;;;5098135;27;20313;-68
2022/04/16 03:07:08;;;;;;;7.05;3.13;;;20.70;77.00;;;;;;5114710;27;20051;-68
2022/04/16 03:09:35;;;;;;;4.72;2.03;;;20.70;76.10;;;;;;5125648;27;20027;-68
2022/04/16 03:12:03;;;;;;;3.03;1.65;;;20.70;76.50;;;;;;5125671;27;20500;-68
2022/04/16 03:17:33;;;;;;;5.53;1.80;;;20.80;78.00;;;;;;5129687;27;20054;-68
2022/04/16 03:20:04;;;;;;;4.07;1.88;;;20.80;77.50;;;;;;5118136;27;20450;-68
2022/04/16 03:22:38;;;;;;;3.33;1.63;;;20.80;76.80;;;;;;5124879;27;20038;-67
2022/04/16 03:25:08;;;;;;;5.00;2.20;;;20.80;77.50;;;;;;5129422;27;20051;-67
2022/04/16 03:27:37;;;;;;;;;;;20.80;78.20;;;;;;5125901;27;20079;-68
2022/04/16 03:30:05;;;;;;;6.10;2.10;;;20.80;79.40;;;;;;5116417;27;19907;-68
2022/04/16 03:32:32;;;;;;;6.53;2.10;;;20.90;80.20;;;;;;5100806;27;20036;-68
2022/04/16 03:35:00;;;;;;;6.35;1.90;;;20.90;81.00;;;;;;5111057;27;20154;-67
2022/04/16 07:32:51;;;;;;;6.32;1.90;;;20.40;81.30;;;;;;5111846;28;20066;-68
2022/04/16 07:35:18;;;;;;;5.07;1.83;;;20.40;81.40;;;;;;5113949;28;20073;-68
2022/04/16 07:37:48;;;;;;;4.65;1.80;;;20.30;81.60;;;;;;5114120;28;20110;-68
2022/04/16 07:40:16;;;;;;;8.05;2.00;;;20.30;82.00;;;;;;5113737;28;20073;-68
2022/04/16 07:42:43;;;;;;;6.28;1.90;;;20.30;82.50;;;;;;5113929;28;20625;-68
2022/04/16 07:45:10;;;;;;;5.43;2.40;;;20.30;83.00;;;;;;5113932;28;20096;-68
2022/04/16 07:47:37;;;;;;;4.72;2.00;;;20.30;83.10;;;;;;5113608;28;20032;-68
2022/04/16 07:50:05;;;;;;;6.45;2.17;;;20.30;83.20;;;;;;5113746;28;20027;-68
2022/04/16 07:52:32;;;;;;;7.10;2.38;;;20.30;83.40;;;;;;5113791;28;20469;-68
2022/04/16 07:54:59;;;;;;;5.25;1.80;;;20.30;83.60;;;;;;5113929;28;20061;-68
2022/04/16 07:57:26;;;;;;;6.97;2.10;;;20.20;83.70;;;;;;5113365;28;20032;-68
2022/04/16 07:59:54;;;;;;;8.57;2.25;;;20.20;83.70;;;;;;5113597;28;20093;-68
2022/04/16 08:02:21;;;;;;;8.40;1.85;;;20.20;83.90;;;;;;5095744;28;20070;-68
2022/04/16 08:04:48;;;;;;;5.65;2.13;;;20.20;84.00;;;;;;5113703;28;20089;-68
2022/04/16 08:07:16;;;;;;;4.60;2.10;;;20.20;84.00;;;;;;5113647;28;20073;-68
2022/04/16 08:09:43;;;;;;;4.72;2.30;;;20.20;84.20;;;;;;5113543;28;20488;-68
2022/04/16 08:12:10;;;;;;;3.85;1.90;;;20.20;84.30;;;;;;5113460;28;20030;-68
2022/04/16 08:14:37;;;;;;;6.15;2.40;;;20.10;84.40;;;;;;5113535;28;20035;-68
2022/04/16 08:17:04;;;;;;;5.82;2.20;;;20.10;84.70;;;;;;5113199;28;20055;-68
2022/04/16 08:19:31;;;;;;;8.55;2.63;;;20.10;84.70;;;;;;5113057;28;20023;-68
2022/04/16 08:21:59;;;;;;;7.28;2.20;;;20.10;84.90;;;;;;5112668;28;20115;-68
2022/04/16 08:26:59;;;;;;;7.68;3.17;;;20.10;85.00;;;;;;5113309;28;20028;-68
2022/04/16 08:29:26;;;;;;;6.45;2.80;;;20.10;85.10;;;;;;5112981;28;20052;-68
2022/04/16 08:31:53;;;;;;;6.78;3.13;;;20.10;85.00;;;;;;5109076;27;20090;-68
2022/04/16 08:34:20;;;;;;;8.20;3.10;;;20.00;85.10;;;;;;5133528;27;20491;-68
2022/04/16 08:36:47;;;;;;;6.70;3.63;;;20.00;85.00;;;;;;5133606;27;20023;-68
2022/04/16 08:39:15;;;;;;;8.57;3.17;;;20.00;85.20;;;;;;5133499;27;20024;-68
2022/04/16 08:41:42;;;;;;;7.55;3.30;;;20.00;85.60;;;;;;5133241;27;20039;-68
2022/04/16 08:44:10;;;;;;;16.85;3.65;;;20.00;85.40;;;;;;5115227;27;20050;-68
2022/04/16 08:46:37;;;;;;;11.52;3.05;;;19.90;85.40;;;;;;5115347;27;20062;-68
2022/04/16 08:49:04;;;;;;;7.47;3.13;;;19.90;85.60;;;;;;5115141;27;20039;-68
2022/04/16 08:51:31;;;;;;;12.05;3.55;;;19.90;85.60;;;;;;5133391;27;20076;-68
2022/04/16 08:53:58;;;;;;;6.97;3.13;;;19.80;85.50;;;;;;5133024;27;20039;-68
2022/04/16 08:56:25;;;;;;;11.48;3.45;;;19.80;85.70;;;;;;5132877;27;20035;-68
2022/04/16 08:58:53;;;;;;;20.75;6.18;;;19.80;85.80;;;;;;5115020;27;20035;-68
2022/04/16 09:01:20;;;;;;;17.13;8.43;;;19.80;85.90;;;;;;5132888;27;20035;-68
2022/04/16 09:03:51;;;;;;;29.48;13.05;;;19.70;86.10;;;;;;5132947;27;20034;-68
2022/04/16 09:06:25;;;;;;;21.67;11.15;;;19.70;86.20;;;;;;5115228;27;20378;-68
2022/04/16 09:08:52;;;;;;;18.65;10.02;;;19.70;86.50;;;;;;5132780;27;20516;-68
2022/04/16 09:11:26;;;;;;;19.08;9.23;;;19.70;86.50;;;;;;5133057;27;20031;-68
2022/04/16 09:13:53;;;;;;;11.13;3.85;;;19.70;86.70;;;;;;5115207;27;20038;-68
2022/04/16 09:16:21;;;;;;;23.85;4.78;;;19.70;86.10;;;;;;5114701;27;20027;-68
2022/04/16 09:18:52;;;;;;;19.20;4.47;;;19.70;86.20;;;;;;5132653;27;20496;-68
2022/04/16 09:21:20;;;;;;;17.23;6.93;;;19.60;86.50;;;;;;5132790;27;20019;-68
2022/04/16 09:23:50;;;;;;;13.48;5.30;;;19.60;86.60;;;;;;5132614;27;20066;-68
2022/04/16 09:26:37;;;;;;;14.35;4.72;;;19.70;86.90;;;;;;5098340;27;20031;-68
2022/04/16 09:29:11;;;;;;;11.35;3.85;;;19.60;87.00;;;;;;5132146;27;20042;-68
2022/04/16 09:31:46;;;;;;;11.00;4.72;;;19.60;87.00;;;;;;5131960;27;20043;-68
2022/04/16 09:34:21;;;;;;;11.75;4.72;;;19.50;87.00;;;;;;5114224;27;20118;-68
2022/04/16 09:36:48;;;;;;;8.98;4.30;;;19.50;87.00;;;;;;5114904;27;20031;-68
2022/04/16 09:39:16;;;;;;;7.95;4.43;;;19.50;87.10;;;;;;5132151;27;20392;-68
2022/04/16 09:41:46;;;;;;;9.15;4.30;;;19.50;87.20;;;;;;5114267;27;20030;-69
2022/04/16 09:44:27;;;;;;;9.00;4.30;;;19.50;87.30;;;;;;5132828;27;20054;-68
2022/04/16 09:46:55;;;;;;;9.18;4.25;;;19.50;87.10;;;;;;5132181;27;20031;-68
2022/04/16 09:49:23;;;;;;;12.35;4.35;;;19.40;87.00;;;;;;5097045;27;20067;-68
2022/04/16 09:51:50;;;;;;;11.30;4.15;;;19.40;87.30;;;;;;5113792;28;20035;-68
2022/04/16 09:54:18;;;;;;;14.30;5.75;;;19.40;87.60;;;;;;5114052;27;20041;-68
2022/04/16 09:56:47;;;;;;;13.45;5.45;;;19.50;86.90;;;;;;5132444;27;20034;-68
2022/04/16 09:59:15;;;;;;;17.13;6.80;;;19.40;86.60;;;;;;5132080;27;20031;-68
2022/04/16 10:01:47;;;;;;;16.55;6.20;;;19.30;86.80;;;;;;5113760;27;20123;-68
2022/04/16 10:04:17;;;;;;;12.88;5.88;;;19.30;86.80;;;;;;5132017;27;20024;-69
2022/04/16 10:06:45;;;;;;;10.77;5.53;;;19.30;87.10;;;;;;5113708;27;20046;-68
2022/04/16 10:09:13;;;;;;;13.73;5.20;;;19.30;87.10;;;;;;5131563;27;20035;-68
2022/04/16 10:14:56;;;;;;;10.73;4.72;;;19.30;87.10;;;;;;5116900;27;20112;-68
2022/04/16 10:17:30;;;;;;;8.45;5.07;;;19.30;87.20;;;;;;5115480;28;20141;-68
2022/04/16 10:20:10;;;;;;;14.05;5.30;;;19.20;87.40;;;;;;5113753;27;20042;-68
2022/04/16 10:22:37;;;;;;;7.03;4.90;;;19.20;87.60;;;;;;5131867;27;20096;-68
2022/04/16 10:25:04;;;;;;;9.43;4.15;;;19.20;87.50;;;;;;5131645;28;20084;-68
2022/04/16 10:27:33;;;;;;;10.05;4.40;;;19.20;87.40;;;;;;5131798;28;20046;-68
2022/04/16 10:30:04;;;;;;;17.80;4.78;;;19.20;87.40;;;;;;5096807;28;20028;-68
2022/04/16 10:32:45;;;;;;;10.90;4.45;;;19.10;87.50;;;;;;5097282;28;20138;-68
2022/04/16 10:35:17;;;;;;;16.05;4.47;;;19.10;87.50;;;;;;5113636;28;20035;-68
2022/04/16 10:37:54;;;;;;;9.10;4.10;;;19.10;87.70;;;;;;5113329;28;20084;-68
2022/04/16 10:40:25;;;;;;;8.70;3.90;;;19.10;87.60;;;;;;5131282;28;20046;-67
2022/04/16 10:42:58;;;;;;;10.50;4.03;;;19.10;87.60;;;;;;5131682;27;20038;-68
2022/04/16 10:45:26;;;;;;;8.77;3.47;;;19.00;87.70;;;;;;5135815;27;20039;-68
2022/04/16 10:47:54;;;;;;;14.60;4.10;;;19.00;87.70;;;;;;5135705;27;20039;-68
2022/04/16 10:50:22;;;;;;;9.15;4.18;;;19.00;87.90;;;;;;5117839;27;20088;-68
2022/04/16 10:52:57;;;;;;;12.20;3.70;;;19.00;87.90;;;;;;5100803;27;20119;-68
2022/04/16 10:55:30;;;;;;;8.93;4.05;;;19.00;88.00;;;;;;5135881;27;20031;-68
2022/04/16 10:57:59;;;;;;;16.08;4.20;;;19.10;87.90;;;;;;5135339;27;20035;-68
2022/04/16 11:00:47;;;;;;;11.88;4.32;;;19.00;87.90;;;;;;5135382;27;20492;-68
2022/04/16 11:03:21;;;;;;;11.25;4.30;;;19.00;88.10;;;;;;5135442;27;20020;-68
2022/04/16 11:05:48;;;;;;;8.65;3.75;;;19.00;88.20;;;;;;5100672;27;20031;-67
2022/04/16 11:08:16;;;;;;;9.73;4.13;;;18.90;88.40;;;;;;5116732;27;20039;-68
2022/04/16 11:10:43;;;;;;;18.02;4.10;;;18.90;88.60;;;;;;5135050;27;20035;-68
2022/04/16 11:13:11;;;;;;;6.80;3.53;;;18.90;88.70;;;;;;5135301;27;20043;-68
2022/04/16 11:15:40;;;;;;;7.25;3.70;;;18.90;88.90;;;;;;5135163;27;20084;-68
2022/04/16 11:18:07;;;;;;;12.70;4.75;;;18.80;89.00;;;;;;5117118;27;20030;-68
2022/04/16 11:20:34;;;;;;;10.02;3.78;;;18.80;89.20;;;;;;5134844;27;20023;-68
2022/04/16 11:23:02;;;;;;;9.90;4.05;;;18.80;89.40;;;;;;5116899;27;20043;-68
2022/04/16 11:34:14;;;;;;;10.48;4.30;;;18.80;89.60;;;;;;5100279;27;20023;-68
2022/04/16 11:36:31;;;;;;;10.40;4.20;;;18.70;90.10;;;;;;5134800;27;20081;-68
2022/04/16 11:38:59;;;;;;;14.55;4.35;;;18.70;89.90;;;;;;5134853;27;20110;-68
2022/04/16 11:41:28;;;;;;;14.27;4.85;;;18.70;89.90;;;;;;5134733;27;20505;-68
2022/04/16 11:43:55;;;;;;;12.60;4.70;;;18.60;89.90;;;;;;5116741;27;20031;-68
2022/04/16 11:46:22;;;;;;;9.85;4.32;;;18.60;89.90;;;;;;5134584;27;20489;-69
2022/04/16 11:48:50;;;;;;;11.02;4.75;;;18.60;89.90;;;;;;5134721;27;20038;-68
2022/04/16 11:51:18;;;;;;;10.75;5.18;;;18.60;89.80;;;;;;5099702;27;20026;-68
2022/04/16 11:53:47;;;;;;;9.70;4.78;;;18.60;89.80;;;;;;5099651;27;20088;-68
2022/04/16 11:56:22;;;;;;;13.57;5.07;;;18.60;89.70;;;;;;5134138;27;20027;-68
2022/04/16 11:58:53;;;;;;;10.68;5.05;;;18.50;89.80;;;;;;5116632;27;20035;-68
2022/04/16 12:01:23;;;;;;;;;;;18.60;89.80;;;;;;5134789;27;20537;-68
2022/04/16 12:03:53;;;;;;;8.20;4.60;;;18.60;89.80;;;;;;5116054;27;19903;-68
2022/04/16 12:06:20;;;;;;;;;;;18.60;89.70;;;;;;5134518;27;20028;-68
2022/04/16 12:08:47;;;;;;;11.88;5.22;;;18.60;89.80;;;;;;5134089;27;19919;-68
2022/04/16 12:11:14;;;;;;;11.43;5.00;;;18.60;89.90;;;;;;5133970;27;20027;-68
2022/04/16 12:13:42;;;;;;;12.60;5.65;;;18.60;90.00;;;;;;5134175;27;20038;-68
2022/04/16 12:16:13;;;;;;;10.38;4.80;;;18.50;90.00;;;;;;5133833;27;20042;-68
2022/04/16 12:18:47;;;;;;;13.93;5.30;;;18.50;90.30;;;;;;5133998;27;20027;-68
2022/04/16 12:21:18;;;;;;;11.45;4.68;;;18.60;90.30;;;;;;5098865;27;20319;-68
2022/04/16 12:23:46;;;;;;;11.27;4.90;;;18.50;90.20;;;;;;5115626;27;20366;-68
2022/04/16 12:26:14;;;;;;;9.15;3.92;;;18.50;90.40;;;;;;5133827;27;20036;-68
2022/04/16 12:28:51;;;;;;;12.15;4.40;;;18.50;90.50;;;;;;5115575;27;20370;-68
2022/04/16 12:31:31;;;;;;;8.25;4.13;;;18.50;90.60;;;;;;5116000;27;20558;-68
2022/04/16 12:33:58;;;;;;;7.57;4.00;;;18.50;90.70;;;;;;5115763;27;20544;-68
2022/04/16 12:36:25;;;;;;;6.78;4.32;;;18.40;90.80;;;;;;5133610;27;20283;-68
2022/04/16 12:38:54;;;;;;;7.53;3.83;;;18.40;90.70;;;;;;5133534;27;20031;-68
2022/04/16 12:41:21;;;;;;;9.50;4.47;;;18.40;90.80;;;;;;5133764;27;20031;-68
2022/04/16 12:43:48;;;;;;;8.25;4.13;;;18.30;90.70;;;;;;5133575;27;20110;-68
2022/04/16 12:46:15;;;;;;;8.50;4.05;;;18.30;90.70;;;;;;5133807;27;20076;-68
2022/04/16 12:48:43;;;;;;;8.23;4.32;;;18.30;90.70;;;;;;5133210;27;20035;-68
2022/04/16 12:51:11;;;;;;;7.80;3.78;;;18.30;90.80;;;;;;5133067;27;20019;-68
2022/04/16 12:53:39;;;;;;;5.63;3.40;;;18.30;90.60;;;;;;5115399;27;20156;-68
2022/04/16 12:56:06;;;;;;;10.60;4.70;;;18.30;90.80;;;;;;5133508;27;20023;-68
2022/04/16 12:58:33;;;;;;;9.05;4.32;;;18.30;91.00;;;;;;5132862;27;20114;-69
2022/04/16 13:01:01;;;;;;;9.55;4.60;;;18.30;91.20;;;;;;5133037;27;20031;-68
2022/04/16 13:03:28;;;;;;;11.15;4.40;;;18.30;91.20;;;;;;5114971;27;20038;-68
2022/04/16 13:05:56;;;;;;;10.82;4.53;;;18.30;91.20;;;;;;5133171;27;20051;-68
2022/04/16 13:08:24;;;;;;;9.18;4.18;;;18.30;91.30;;;;;;5133101;27;20042;-68
2022/04/16 13:10:51;;;;;;;9.75;4.15;;;18.30;91.00;;;;;;5132971;27;20038;-68
2022/04/16 13:13:18;;;;;;;13.55;4.53;;;18.30;90.90;;;;;;5132959;27;20038;-68
2022/04/16 13:15:46;;;;;;;8.23;4.50;;;18.20;90.80;;;;;;5133128;27;20030;-68
2022/04/16 13:18:13;;;;;;;7.95;3.75;;;18.20;90.60;;;;;;5132647;27;20393;-68
2022/04/16 13:20:40;;;;;;;11.63;4.85;;;18.10;90.70;;;;;;5132896;27;20077;-68
2022/04/16 13:23:08;;;;;;;7.82;4.35;;;18.10;90.80;;;;;;5132856;27;20031;-68
2022/04/16 13:25:35;;;;;;;7.88;4.00;;;18.10;90.90;;;;;;5132771;27;20027;-68
2022/04/16 13:28:02;;;;;;;7.60;4.45;;;18.00;90.80;;;;;;5132271;27;20397;-68
2022/04/16 13:30:30;;;;;;;9.02;4.80;;;18.00;90.80;;;;;;5132457;27;20047;-69
2022/04/16 13:32:57;;;;;;;10.38;5.07;;;18.00;90.80;;;;;;5132741;27;20106;-68
2022/04/16 13:35:24;;;;;;;10.55;5.72;;;18.00;90.80;;;;;;5132709;27;20027;-69
2022/04/16 13:37:51;;;;;;;9.55;5.50;;;18.10;90.70;;;;;;5097409;27;20088;-68
2022/04/16 13:43:04;;;;;;;8.57;5.40;;;18.10;90.60;;;;;;5132304;27;20035;-68
2022/04/16 13:45:31;;;;;;;8.38;4.78;;;18.10;90.60;;;;;;5132663;27;20442;-68
2022/04/16 13:47:58;;;;;;;7.30;5.00;;;18.10;90.50;;;;;;5132419;27;20043;-68
2022/04/16 13:50:25;;;;;;;9.77;5.03;;;18.10;90.60;;;;;;5132161;27;20039;-68
2022/04/16 13:52:52;;;;;;;11.32;5.50;;;18.10;90.50;;;;;;5132385;27;20031;-68
2022/04/16 13:55:19;;;;;;;14.40;6.40;;;18.10;90.50;;;;;;5114185;27;20050;-68
2022/04/16 13:57:47;;;;;;;12.73;6.20;;;18.00;90.60;;;;;;5131761;27;20556;-68
2022/04/16 14:00:14;;;;;;;10.13;5.85;;;18.00;90.80;;;;;;5113356;27;20035;-68
2022/04/16 14:02:44;;;;;;;12.40;5.63;;;17.90;90.90;;;;;;5132044;27;20035;-68
2022/04/16 14:07:56;;;;;;;10.27;5.00;;;17.90;91.00;;;;;;5132049;27;20367;-68
2022/04/16 14:10:23;;;;;;;11.52;5.88;;;17.90;90.90;;;;;;5132581;27;20039;-68
2022/04/16 14:12:51;;;;;;;16.13;6.00;;;17.80;90.70;;;;;;5132300;27;20023;-68
2022/04/16 14:15:18;;;;;;;13.10;6.10;;;17.80;90.90;;;;;;5132159;27;20031;-68
2022/04/16 14:17:45;;;;;;;10.93;6.05;;;17.80;91.00;;;;;;5131913;27;20451;-68
2022/04/16 14:20:12;;;;;;;10.65;6.25;;;17.90;90.90;;;;;;5131942;27;20047;-68
2022/04/16 14:22:39;;;;;;;10.68;6.15;;;17.80;90.90;;;;;;5131935;28;20540;-68
2022/04/16 14:25:07;;;;;;;9.98;5.75;;;17.80;91.00;;;;;;5132059;28;20084;-68
2022/04/16 14:27:34;;;;;;;12.63;6.25;;;17.80;91.00;;;;;;5131925;28;20483;-68
2022/04/16 14:30:01;;;;;;;12.90;5.80;;;17.80;91.00;;;;;;5132330;28;20477;-68
2022/04/16 14:32:28;;;;;;;14.27;6.47;;;17.80;91.00;;;;;;5131703;28;20043;-68
2022/04/16 14:34:56;;;;;;;9.18;6.03;;;17.80;91.10;;;;;;5131788;28;20462;-68
2022/04/16 14:37:23;;;;;;;9.60;6.40;;;17.70;91.20;;;;;;5096679;28;20031;-68
2022/04/16 14:39:50;;;;;;;14.45;6.80;;;17.70;91.40;;;;;;5131607;28;20054;-68
2022/04/16 14:42:17;;;;;;;11.75;6.55;;;17.70;91.20;;;;;;5113402;28;20058;-68
2022/04/16 14:44:51;;;;;;;13.63;6.65;;;17.70;91.30;;;;;;5113315;28;20108;-68
2022/04/16 14:47:18;;;;;;;12.60;6.88;;;17.70;91.30;;;;;;5131781;28;20055;-68
2022/04/16 14:49:46;;;;;;;12.27;6.65;;;17.70;91.30;;;;;;5131802;28;20038;-68
2022/04/16 14:52:13;;;;;;;13.90;6.38;;;17.70;91.30;;;;;;5113138;28;20062;-68
2022/04/16 14:54:40;;;;;;;15.40;6.65;;;17.60;91.40;;;;;;5131349;28;20062;-68
2022/04/16 14:57:07;;;;;;;13.20;6.78;;;17.60;91.40;;;;;;5113293;28;20035;-68
2022/04/16 14:59:35;;;;;;;12.68;6.63;;;17.60;91.40;;;;;;5131545;28;20027;-68
2022/04/16 15:02:02;;;;;;;11.40;6.57;;;17.60;91.40;;;;;;5096420;28;20059;-68
2022/04/16 15:04:30;;;;;;;11.18;6.28;;;17.60;91.40;;;;;;5131623;28;20088;-68
2022/04/16 15:06:57;;;;;;;11.50;6.18;;;17.60;91.40;;;;;;5131863;28;20106;-68
2022/04/16 15:09:24;;;;;;;10.40;6.43;;;17.60;91.40;;;;;;5131646;28;20051;-68
2022/04/16 15:11:51;;;;;;;17.27;6.47;;;17.60;91.20;;;;;;5131288;28;20447;-68
2022/04/16 15:14:18;;;;;;;11.80;6.65;;;17.60;91.30;;;;;;5131414;28;20031;-68
2022/04/16 15:16:45;;;;;;;10.13;6.15;;;17.60;91.20;;;;;;5131130;28;20043;-68
2022/04/16 15:19:12;;;;;;;9.10;5.75;;;17.60;91.40;;;;;;5131302;28;20401;-68
2022/04/16 15:21:40;;;;;;;13.73;6.07;;;17.60;91.40;;;;;;5131431;28;20023;-68
2022/04/16 15:24:09;;;;;;;9.77;5.72;;;17.50;91.30;;;;;;5113168;28;20039;-68
2022/04/16 15:26:36;;;;;;;11.55;6.38;;;17.50;91.40;;;;;;5131325;28;20051;-68
2022/04/16 15:29:04;;;;;;;12.18;7.40;;;17.50;91.50;;;;;;5131083;28;20118;-68
2022/04/16 15:31:36;;;;;;;11.75;6.97;;;17.50;91.50;;;;;;5115505;27;20047;-68
2022/04/16 15:34:09;;;;;;;12.30;6.63;;;17.50;91.50;;;;;;5135069;27;20031;-69
2022/04/16 15:36:39;;;;;;;11.68;6.50;;;17.40;91.30;;;;;;5134973;27;20491;-68
2022/04/16 15:39:07;;;;;;;9.63;6.25;;;17.40;91.50;;;;;;5116487;27;20460;-68
2022/04/16 15:41:34;;;;;;;14.93;6.20;;;17.40;91.70;;;;;;5116475;27;20027;-68
2022/04/16 15:44:03;;;;;;;12.82;6.40;;;17.40;91.70;;;;;;5134714;27;20035;-68
2022/04/16 15:46:32;;;;;;;11.55;5.93;;;17.40;91.80;;;;;;5116291;27;20049;-68
2022/04/16 15:48:59;;;;;;;11.00;6.13;;;17.30;91.40;;;;;;5116138;27;20182;-68
2022/04/16 15:51:27;;;;;;;8.38;5.43;;;17.30;91.70;;;;;;5134686;27;20051;-68
2022/04/16 15:53:54;;;;;;;13.63;6.40;;;17.30;91.40;;;;;;5134633;27;20023;-68
2022/04/16 15:56:21;;;;;;;11.18;5.60;;;17.30;91.60;;;;;;5134600;27;20045;-68
2022/04/16 15:58:49;;;;;;;9.93;6.00;;;17.30;91.60;;;;;;5134217;27;20053;-68
2022/04/16 16:01:16;;;;;;;9.82;5.75;;;17.30;91.50;;;;;;5134352;27;20046;-68
2022/04/16 16:03:43;;;;;;;11.13;5.10;;;17.30;91.60;;;;;;5134201;27;20034;-68
2022/04/16 16:06:10;;;;;;;9.52;5.38;;;17.20;91.50;;;;;;5134035;27;20035;-68
2022/04/16 16:08:37;;;;;;;10.23;5.35;;;17.20;91.60;;;;;;5115464;27;20457;-68
2022/04/16 16:11:05;;;;;;;8.77;4.78;;;17.30;91.70;;;;;;5115868;27;20366;-68
2022/04/16 16:13:32;;;;;;;7.72;5.03;;;17.20;91.40;;;;;;5134016;27;20080;-68
2022/04/16 16:16:00;;;;;;;7.63;4.88;;;17.20;91.60;;;;;;5116041;27;20072;-68
2022/04/16 16:18:27;;;;;;;11.20;5.28;;;17.20;91.50;;;;;;5134304;27;20035;-68
2022/04/16 16:20:54;;;;;;;7.38;4.40;;;17.20;91.30;;;;;;5133480;27;20214;-68
2022/04/16 16:23:22;;;;;;;6.93;4.88;;;17.20;91.20;;;;;;5115744;27;20062;-68
2022/04/16 16:25:50;;;;;;;7.13;4.30;;;17.10;91.40;;;;;;5134014;27;20050;-68
2022/04/16 16:28:17;;;;;;;9.45;4.82;;;17.10;91.50;;;;;;5115947;27;20415;-68
2022/04/16 16:30:44;;;;;;;10.75;4.68;;;17.10;91.50;;;;;;5133570;27;20051;-68
2022/04/16 16:33:12;;;;;;;10.75;4.95;;;17.10;91.40;;;;;;5133643;27;20388;-68
2022/04/16 16:35:39;;;;;;;12.07;4.97;;;17.10;91.60;;;;;;5133905;27;20041;-68
2022/04/16 16:38:06;;;;;;;10.93;4.18;;;17.00;91.50;;;;;;5115762;27;20035;-68
2022/04/16 16:40:34;;;;;;;5.70;4.20;;;17.00;91.60;;;;;;5133523;27;20116;-68
2022/04/16 16:43:01;;;;;;;7.80;4.40;;;17.00;91.60;;;;;;5133211;27;20023;-68
2022/04/16 16:45:28;;;;;;;6.45;3.92;;;17.00;91.50;;;;;;5133238;27;20109;-68
2022/04/16 16:47:56;;;;;;;7.70;4.15;;;17.00;91.70;;;;;;5133381;27;20035;-68
2022/04/16 16:50:24;;;;;;;9.18;4.30;;;16.90;91.60;;;;;;5133368;27;20489;-68
2022/04/16 16:52:51;;;;;;;8.82;4.45;;;16.90;91.50;;;;;;5133180;27;20110;-68
2022/04/16 16:55:23;;;;;;;7.90;4.20;;;16.90;91.40;;;;;;5133733;27;20041;-68
2022/04/16 16:57:51;;;;;;;8.88;4.22;;;16.90;91.50;;;;;;5133050;27;20035;-68
2022/04/16 17:00:19;;;;;;;9.93;4.97;;;16.90;91.60;;;;;;5133084;27;20393;-68
2022/04/16 17:05:33;;;;;;;8.63;4.63;;;16.90;91.50;;;;;;5117522;27;20054;-68
2022/04/16 17:08:00;;;;;;;9.73;4.25;;;16.90;91.40;;;;;;5133295;27;20501;-68
2022/04/16 17:10:27;;;;;;;7.30;4.40;;;16.90;91.50;;;;;;5133063;27;20047;-68
2022/04/16 17:12:55;;;;;;;8.75;4.28;;;16.90;91.50;;;;;;5113128;27;20099;-68
2022/04/16 17:20:53;;;;;;;10.93;4.68;;;16.80;91.40;;;;;;5112238;28;20035;-67
2022/04/16 17:23:21;;;;;;;8.35;4.57;;;16.80;91.40;;;;;;5112226;28;20395;-68
2022/04/16 17:25:48;;;;;;;9.35;4.65;;;16.80;91.50;;;;;;5111974;28;20027;-68
2022/04/16 17:28:16;;;;;;;7.47;4.65;;;16.70;91.60;;;;;;5110892;28;20533;-68
2022/04/16 17:30:44;;;;;;;10.85;4.60;;;16.80;91.60;;;;;;5116788;27;20039;-68
2022/04/16 17:33:12;;;;;;;7.30;4.45;;;16.70;91.50;;;;;;5132610;27;20055;-68
2022/04/16 17:35:40;;;;;;;12.00;5.10;;;16.80;91.50;;;;;;5132331;27;20362;-68
2022/04/16 17:38:09;;;;;;;9.30;5.10;;;16.80;91.50;;;;;;5131553;27;20484;-68
2022/04/16 17:40:38;;;;;;;9.38;4.93;;;16.70;91.60;;;;;;5097428;27;20073;-68
2022/04/16 17:43:08;;;;;;;7.30;4.68;;;16.70;91.60;;;;;;5108851;28;20043;-68
2022/04/16 17:45:36;;;;;;;10.95;4.80;;;16.70;91.70;;;;;;5132388;27;20026;-68
2022/04/16 17:48:04;;;;;;;10.07;4.75;;;16.70;91.70;;;;;;5114182;27;20054;-68
2022/04/16 17:50:31;;;;;;;12.90;5.03;;;16.60;91.60;;;;;;5131828;27;20076;-68
2022/04/16 17:52:58;;;;;;;9.85;5.15;;;16.60;91.90;;;;;;5112757;28;20126;-68
2022/04/16 17:55:25;;;;;;;9.50;5.40;;;16.60;91.90;;;;;;5113874;27;20110;-68
2022/04/16 17:57:52;;;;;;;10.40;5.18;;;16.60;91.90;;;;;;5113775;27;20076;-68
2022/04/16 18:00:20;;;;;;;10.07;5.55;;;16.60;91.70;;;;;;5113286;27;20031;-68
2022/04/16 18:02:48;;;;;;;9.63;5.30;;;16.70;91.70;;;;;;5131554;27;20418;-68
